Flight Track Log - Related Links

Times and Time Zones

All times are in EDT time to prevent confusion due to time zone crossing. See the UPS833 flight status page for this flight to view local times or setup timezone preferences in your user account.

Time Position Orientation Groundspeed Altitude Reporting Facility
EDT Latitude Longitude Course Direction KTS MPH feet Rate Location/Type
Thu 08:38:50 PM 43.5680 -116.2430 185° South 2 2  Level FlightAware ADS-B
Thu 08:44:38 PM 43.5670 -116.2430 180° South 28 32 222 Level FlightAware ADS-B
Thu 08:44:59 PM 43.5660 -116.2420 144° Southeast 33 38 357 Level FlightAware ADS-B
Thu 08:45:28 PM 43.5660 -116.2390 90° East 15 17 370 Level FlightAware ADS-B
Thu 08:45:56 PM 43.5660 -116.2360 90° East 15 17 391 Level FlightAware ADS-B
Thu 08:46:04 PM 43.5660 -116.2350 90° East 15 17 413 Level FlightAware ADS-B
Thu 08:46:40 PM 43.5650 -116.2320 115° Southeast 19 22 420 Level FlightAware ADS-B
Thu 08:46:58 PM 43.5640 -116.2300 125° Southeast 22 25 453 Level FlightAware ADS-B
Thu 08:47:32 PM 43.5630 -116.2250 105° East 25 29 472 Level FlightAware ADS-B
Thu 08:47:58 PM 43.5610 -116.2210 125° Southeast 28 32 513 Level FlightAware ADS-B
Thu 08:48:12 PM 43.5600 -116.2180 115° Southeast 30 35 548 Level FlightAware ADS-B
Thu 08:48:39 PM 43.5590 -116.2150 115° Southeast 23 26 570 Level FlightAware ADS-B
Thu 08:48:53 PM 43.5590 -116.2130 90° East 24 28 616 Level FlightAware ADS-B
Thu 08:49:55 PM 43.5580 -116.2100 115° Southeast 19 22 644 Level FlightAware ADS-B
Thu 08:52:00 PM 43.4397 -115.9218 122° Southeast  Level FlightAware Approximate
Thu 08:52:42 PM 43.5590 -116.2100 122° Southeast 23 26  Level FlightAware ADS-B
Thu 08:53:42 PM 43.5600 -116.2130 295° West 69 79 2,318 Level FlightAware ADS-B
Thu 08:54:10 PM 43.5680 -116.2360 296° West 161 185 3,400 5,300 Climbing FlightAware ADS-B
Thu 08:54:42 PM 43.5780 -116.2660 295° West 163 188 5,300 3,130 Climbing FlightAware ADS-B
Thu 08:54:56 PM 43.5810 -116.2810 285° West 177 204 5,800 2,053 Climbing FlightAware ADS-B
Thu 08:55:20 PM 43.5750 -116.3100 254° West 220 253 6,600 2,100 Climbing FlightAware ADS-B
Thu 08:55:36 PM 43.5620 -116.3240 218° Southwest 241 277 7,200 2,357 Climbing FlightAware ADS-B
Thu 08:55:48 PM 43.5480 -116.3290 195° South 258 297 7,700 2,850 Climbing FlightAware ADS-B
Thu 08:56:16 PM 43.5160 -116.3120 159° South 294 338 9,100 3,000 Climbing FlightAware ADS-B
Thu 08:56:34 PM 43.5010 -116.2840 126° Southeast 313 360 10,000 2,690 Climbing FlightAware ADS-B
Thu 08:57:14 PM 43.4730 -116.2070 117° Southeast 362 417 11,700 2,357 Climbing FlightAware ADS-B
Thu 08:57:58 PM 43.4340 -116.1110 119° Southeast 412 474 13,300 2,894 Climbing FlightAware ADS-B
Thu 08:58:39 PM 43.3980 -116.0140 117° Southeast 425 489 15,800 3,300 Climbing FlightAware ADS-B
Thu 08:59:18 PM 43.3630 -115.9170 116° Southeast 440 506 17,700 3,108 Climbing FlightAware ADS-B
Thu 09:00:02 PM 43.3220 -115.8060 117° Southeast 451 519 20,100 3,205 Climbing FlightAware ADS-B
Thu 09:00:46 PM 43.2810 -115.6930 116° Southeast 455 524 22,400 3,209 Climbing FlightAware ADS-B
Thu 09:01:28 PM 43.2410 -115.5850 117° Southeast 455 524 24,700 2,927 Climbing FlightAware ADS-B
Thu 09:02:08 PM 43.2020 -115.4810 117° Southeast 466 536 26,400 1,643 Climbing FlightAware ADS-B
Thu 09:02:52 PM 43.1580 -115.3630 117° Southeast 487 560 27,000 429 Climbing FlightAware ADS-B
Thu 09:03:32 PM 43.1170 -115.2530 117° Southeast 485 558 27,000  Level FlightAware ADS-B
Thu 09:04:12 PM 43.0760 -115.1450 117° Southeast 480 552 27,000  Level FlightAware ADS-B
Thu 09:04:57 PM 43.0310 -115.0240 117° Southeast 477 549 27,000  Level FlightAware ADS-B
Thu 09:05:41 PM 42.9860 -114.9070 118° Southeast 476 548 27,000  Level FlightAware ADS-B
Thu 09:06:21 PM 42.9450 -114.8000 118° Southeast 475 547 27,000  Level FlightAware ADS-B
Thu 09:06:57 PM 42.9080 -114.7050 118° Southeast 476 548 27,000  Level FlightAware ADS-B
Thu 09:07:45 PM 42.8590 -114.5770 118° Southeast 477 549 27,000  Level FlightAware ADS-B
Thu 09:08:22 PM 42.8210 -114.4790 118° Southeast 476 548 27,000  Level FlightAware ADS-B
Thu 09:09:09 PM 42.7730 -114.3540 118° Southeast 477 549 27,000  Level FlightAware ADS-B
Thu 09:09:38 PM 42.7430 -114.2800 119° Southeast 475 547 27,000  Level FlightAware ADS-B
Thu 09:10:23 PM 42.6970 -114.1610 118° Southeast 474 545 27,000  Level FlightAware ADS-B
Thu 09:12:38 PM 42.5660 -113.8560 120° Southeast 470 541 27,000  Level FlightAware ADS-B
Thu 09:13:31 PM 42.4780 -113.7280 133° Southeast 446 513 27,000  Level FlightAware ADS-B
Thu 09:14:07 PM 42.4330 -113.6670 135° Southeast 446 513 27,000  Level FlightAware ADS-B
Thu 09:14:55 PM 42.3740 -113.5870 135° Southeast 446 513 27,000  Level FlightAware ADS-B
Thu 09:15:29 PM 42.2860 -113.5080 146° Southeast 434 499 27,000  Level FlightAware ADS-B
Thu 09:15:45 PM 42.2589 -113.4770 140° Southeast 435 501 27,000  Level FlightAware ADS-B
Thu 09:16:25 PM 42.1980 -113.4070 140° Southeast 438 504 27,000  Level FlightAware ADS-B
Thu 09:17:31 PM 42.0970 -113.2920 140° Southeast 435 501 27,000  Level FlightAware ADS-B
Thu 09:17:57 PM 42.0560 -113.2440 139° Southeast 436 502 27,000 -643 Level FlightAware ADS-B
Thu 09:18:55 PM 41.9670 -113.1460 141° Southeast 430 495 26,100 -1,358 Descending FlightAware ADS-B
Thu 09:19:43 PM 41.8950 -113.0650 140° Southeast 420 483 24,600 -1,857 Descending FlightAware ADS-B
Thu 09:20:19 PM 41.8410 -113.0050 140° Southeast 411 473 23,500 -1,974 Descending FlightAware ADS-B
Thu 09:20:59 PM 41.7830 -112.9410 141° Southeast 403 464 22,100 -1,938 Descending FlightAware ADS-B
Thu 09:21:55 PM 41.7040 -112.8530 140° Southeast 390 449 20,400 -1,740 Descending FlightAware ADS-B
Thu 09:22:39 PM 41.6430 -112.7860 141° Southeast 383 441 19,200 -1,579 Descending FlightAware ADS-B
Thu 09:22:52 PM 41.6250 -112.7650 139° Southeast 385 443 18,900 -1,435 Descending FlightAware ADS-B
Thu 09:23:25 PM 41.5794 -112.7160 141° Southeast 382 440 18,100 -1,500 Descending FlightAware ADS-B
Thu 09:23:56 PM 41.5378 -112.6690 140° Southeast 380 437 17,300 -1,108 Descending FlightAware ADS-B
Thu 09:24:30 PM 41.4926 -112.6200 141° Southeast 376 433 16,900 -364 Descending FlightAware ADS-B
Thu 09:25:02 PM 41.4489 -112.5710 140° Southeast 377 434 16,900 -667 Level FlightAware ADS-B
Thu 09:25:42 PM 41.3963 -112.5120 140° Southeast 373 429 16,100 -1,263 Descending FlightAware ADS-B
Thu 09:26:18 PM 41.3509 -112.4580 138° Southeast 352 405 15,300 -1,739 Descending FlightAware ADS-B
Thu 09:26:51 PM 41.3107 -112.4130 140° Southeast 352 405 14,100 -2,000 Descending FlightAware ADS-B
Thu 09:27:21 PM 41.2729 -112.3710 140° Southeast 359 413 13,200 -1,600 Descending FlightAware ADS-B
Thu 09:27:51 PM 41.2348 -112.3280 140° Southeast 356 410 12,500 -1,114 Descending FlightAware ADS-B
Thu 09:28:31 PM 41.1850 -112.2710 139° Southeast 352 405 11,900 -419 Descending FlightAware ADS-B
Thu 09:29:17 PM 41.1285 -112.2060 139° Southeast 352 405 11,900  Level FlightAware ADS-B
Thu 09:29:47 PM 41.0903 -112.1630 140° Southeast 353 406 11,900  Level FlightAware ADS-B
Thu 09:30:08 PM 41.0611 -112.1430 153° Southeast 358 412 11,900  Level FlightAware ADS-B
Thu 09:30:24 PM 41.0343 -112.1360 169° South 357 411 11,900  Level FlightAware ADS-B
Thu 09:30:54 PM 40.9850 -112.1260 171° South 350 403 11,900 -600 Level FlightAware ADS-B
Thu 09:31:24 PM 40.9373 -112.1160 171° South 343 395 11,300 -1,071 Descending FlightAware ADS-B
Thu 09:31:50 PM 40.8985 -112.1080 171° South 327 376 10,900 -429 Descending FlightAware ADS-B
Thu 09:32:20 PM 40.8547 -112.1030 175° South 292 336 10,900 -98 Level FlightAware ADS-B
Thu 09:32:51 PM 40.8160 -112.0990 176° South 259 298 10,800 -450 Descending FlightAware ADS-B
Thu 09:33:00 PM 40.8051 -112.0970 172° South 251 289 10,600 -1,024 Descending FlightAware ADS-B
Thu 09:33:32 PM 40.7695 -112.0880 169° South 238 274 10,100 -1,224 Descending FlightAware ADS-B
Thu 09:33:49 PM 40.7512 -112.0830 168° South 236 272 9,600 -1,818 Descending FlightAware ADS-B
Thu 09:34:05 PM 40.7336 -112.0780 168° South 234 269 9,100 -1,800 Descending FlightAware ADS-B
Thu 09:34:19 PM 40.7195 -112.0750 171° South 234 269 8,700 -1,241 Descending FlightAware ADS-B
Thu 09:34:34 PM 40.7032 -112.0700 167° South 228 262 8,500 -563 Descending FlightAware ADS-B
Thu 09:34:51 PM 40.6863 -112.0660 170° South 222 255 8,400 -182 Descending FlightAware ADS-B
Thu 09:35:07 PM 40.6706 -112.0620 169° South 220 253 8,400  Level FlightAware ADS-B
Thu 09:35:22 PM 40.6554 -112.0580 169° South 222 255 8,400  Level FlightAware ADS-B
Thu 09:36:12 PM 40.6203 -112.0200 141° Southeast 213 245 8,400 -190 Level FlightAware ADS-B
Thu 09:36:25 PM 40.6208 -112.0040 88° East 198 228 8,200 -1,355 Descending FlightAware ADS-B
Thu 09:36:43 PM 40.6227 -111.9820 84° East 195 224 7,700 -1,636 Descending FlightAware ADS-B
Thu 09:36:47 PM 40.6240 -111.9780 67° East 192 221 7,600 -2,000 Descending FlightAware ADS-B
Thu 09:36:55 PM 40.6283 -111.9710 51° Northeast 189 217 7,300 -2,100 Descending FlightAware ADS-B
Thu 09:37:07 PM 40.6378 -111.9640 29° Northeast 185 213 6,900 -1,680 Descending FlightAware ADS-B
Thu 09:37:20 PM 40.6483 -111.9620 North 183 211 6,600 -1,241 Descending FlightAware ADS-B
Thu 09:37:36 PM 40.6620 -111.9630 357° North 179 206 6,300 -968 Descending FlightAware ADS-B
Thu 09:38:22 PM 40.6970 -111.9650 358° North 176 203 5,600 -844 Descending FlightAware ADS-B
Thu 09:38:40 PM 40.7082 -111.9660 356° North 137 158 5,400 -667 Descending FlightAware ADS-B
Thu 09:38:58 PM 40.7193 -111.9670 356° North 127 146 5,200 -828 Descending FlightAware ADS-B
Thu 09:39:09 PM 40.7259 -111.9680 353° North 126 145 5,000 -667 Descending FlightAware ADS-B
Thu 09:39:25 PM 40.7347 -111.9690 355° North 129 148 4,900 -581 Descending FlightAware ADS-B
Thu 09:39:40 PM 40.7439 -111.9700 355° North 129 148 4,700 -750 Descending FlightAware ADS-B
Thu 09:39:57 PM 40.7546 -111.9710 356° North 131 151 4,500 -529 Descending FlightAware ADS-B
Thu 09:40:14 PM 40.7645 -111.9720 356° North 129 148 4,400 -545 Descending FlightAware ADS-B
Thu 09:40:30 PM 40.7742 -111.9730 356° North 128 147 4,200 -750 Descending FlightAware ADS-B

Login

Don't have an account? Register now (free) for customized features, flight alerts, and more!